sensor_id;sensor_type;location;lat;lon;timestamp;temperature;humidity
21787;DHT22;11055;50.870;4.316;2023-10-19T00:00:57;15.90;99.90
21787;DHT22;11055;50.870;4.316;2023-10-19T00:03:24;15.90;99.90
21787;DHT22;11055;50.870;4.316;2023-10-19T00:05:50;15.90;99.90
21787;DHT22;11055;50.870;4.316;2023-10-19T00:08:16;15.90;99.90
21787;DHT22;11055;50.870;4.316;2023-10-19T00:10:53;15.90;99.90
21787;DHT22;11055;50.870;4.316;2023-10-19T00:13:30;15.90;99.90
21787;DHT22;11055;50.870;4.316;2023-10-19T00:15:56;16.00;99.90
21787;DHT22;11055;50.870;4.316;2023-10-19T00:18:25;16.00;99.90
21787;DHT22;11055;50.870;4.316;2023-10-19T00:20:53;16.00;99.90
21787;DHT22;11055;50.870;4.316;2023-10-19T00:23:24;16.00;99.90
21787;DHT22;11055;50.870;4.316;2023-10-19T00:26:02;16.00;99.90
21787;DHT22;11055;50.870;4.316;2023-10-19T00:28:41;16.10;99.90
21787;DHT22;11055;50.870;4.316;2023-10-19T00:31:07;16.10;99.90
21787;DHT22;11055;50.870;4.316;2023-10-19T00:33:37;16.00;99.90
21787;DHT22;11055;50.870;4.316;2023-10-19T00:36:09;16.00;99.90
21787;DHT22;11055;50.870;4.316;2023-10-19T00:38:39;16.10;99.90
21787;DHT22;11055;50.870;4.316;2023-10-19T00:41:13;16.00;99.90
21787;DHT22;11055;50.870;4.316;2023-10-19T00:43:45;16.10;99.90
21787;DHT22;11055;50.870;4.316;2023-10-19T00:46:11;16.10;99.90
21787;DHT22;11055;50.870;4.316;2023-10-19T00:48:51;16.10;99.90
21787;DHT22;11055;50.870;4.316;2023-10-19T00:51:21;16.10;99.90
21787;DHT22;11055;50.870;4.316;2023-10-19T00:53:57;16.10;99.90
21787;DHT22;11055;50.870;4.316;2023-10-19T00:56:25;16.00;99.90
21787;DHT22;11055;50.870;4.316;2023-10-19T00:58:53;16.00;99.90
21787;DHT22;11055;50.870;4.316;2023-10-19T01:01:24;16.00;99.90
21787;DHT22;11055;50.870;4.316;2023-10-19T01:03:53;16.00;99.90
21787;DHT22;11055;50.870;4.316;2023-10-19T01:06:22;16.00;99.90
21787;DHT22;11055;50.870;4.316;2023-10-19T01:08:48;16.10;99.90
21787;DHT22;11055;50.870;4.316;2023-10-19T01:11:16;16.10;99.90
21787;DHT22;11055;50.870;4.316;2023-10-19T01:13:49;16.10;99.90
21787;DHT22;11055;50.870;4.316;2023-10-19T01:16:17;16.20;99.90
21787;DHT22;11055;50.870;4.316;2023-10-19T01:18:50;16.10;99.90
21787;DHT22;11055;50.870;4.316;2023-10-19T01:21:25;16.10;99.90
21787;DHT22;11055;50.870;4.316;2023-10-19T01:24:08;16.10;99.90
21787;DHT22;11055;50.870;4.316;2023-10-19T01:26:35;16.00;99.90
21787;DHT22;11055;50.870;4.316;2023-10-19T01:29:03;16.00;99.90
21787;DHT22;11055;50.870;4.316;2023-10-19T01:31:39;15.90;99.90
21787;DHT22;11055;50.870;4.316;2023-10-19T01:34:16;15.90;99.90
21787;DHT22;11055;50.870;4.316;2023-10-19T01:36:46;16.00;99.90
21787;DHT22;11055;50.870;4.316;2023-10-19T01:39:16;16.00;99.90
21787;DHT22;11055;50.870;4.316;2023-10-19T01:41:44;16.10;99.90
21787;DHT22;11055;50.870;4.316;2023-10-19T01:44:10;16.00;99.90
21787;DHT22;11055;50.870;4.316;2023-10-19T01:46:39;15.90;99.90
21787;DHT22;11055;50.870;4.316;2023-10-19T01:49:05;15.90;99.90
21787;DHT22;11055;50.870;4.316;2023-10-19T01:51:34;15.90;99.90
21787;DHT22;11055;50.870;4.316;2023-10-19T01:54:09;15.90;99.90
21787;DHT22;11055;50.870;4.316;2023-10-19T01:56:36;15.90;99.90
21787;DHT22;11055;50.870;4.316;2023-10-19T01:59:04;15.90;99.90
21787;DHT22;11055;50.870;4.316;2023-10-19T02:01:30;15.90;99.90
21787;DHT22;11055;50.870;4.316;2023-10-19T02:04:04;15.90;99.90
21787;DHT22;11055;50.870;4.316;2023-10-19T02:06:32;16.00;99.90
21787;DHT22;11055;50.870;4.316;2023-10-19T02:09:12;16.00;99.90
21787;DHT22;11055;50.870;4.316;2023-10-19T02:11:50;16.00;99.90
21787;DHT22;11055;50.870;4.316;2023-10-19T02:14:19;15.90;99.90
21787;DHT22;11055;50.870;4.316;2023-10-19T02:16:50;15.90;99.90
21787;DHT22;11055;50.870;4.316;2023-10-19T02:19:21;15.80;99.90
21787;DHT22;11055;50.870;4.316;2023-10-19T02:21:54;15.70;99.90
21787;DHT22;11055;50.870;4.316;2023-10-19T02:24:21;15.70;99.90
21787;DHT22;11055;50.870;4.316;2023-10-19T02:26:50;15.70;99.90
21787;DHT22;11055;50.870;4.316;2023-10-19T02:29:17;15.70;99.90
21787;DHT22;11055;50.870;4.316;2023-10-19T02:31:43;15.80;99.90
21787;DHT22;11055;50.870;4.316;2023-10-19T02:34:10;15.80;99.90
21787;DHT22;11055;50.870;4.316;2023-10-19T02:36:36;15.80;99.90
21787;DHT22;11055;50.870;4.316;2023-10-19T02:39:10;15.70;99.90
21787;DHT22;11055;50.870;4.316;2023-10-19T02:41:39;15.70;99.90
21787;DHT22;11055;50.870;4.316;2023-10-19T02:44:14;15.70;99.90
21787;DHT22;11055;50.870;4.316;2023-10-19T02:46:47;15.70;99.90
21787;DHT22;11055;50.870;4.316;2023-10-19T02:49:14;15.70;99.90
21787;DHT22;11055;50.870;4.316;2023-10-19T02:51:44;15.70;99.90
21787;DHT22;11055;50.870;4.316;2023-10-19T02:54:17;15.60;99.90
21787;DHT22;11055;50.870;4.316;2023-10-19T02:56:53;15.60;99.90
21787;DHT22;11055;50.870;4.316;2023-10-19T02:59:23;15.60;99.90
21787;DHT22;11055;50.870;4.316;2023-10-19T03:01:55;15.60;99.90
21787;DHT22;11055;50.870;4.316;2023-10-19T03:04:41;15.50;99.90
21787;DHT22;11055;50.870;4.316;2023-10-19T03:07:08;15.50;99.90
21787;DHT22;11055;50.870;4.316;2023-10-19T03:09:35;15.60;99.90
21787;DHT22;11055;50.870;4.316;2023-10-19T03:12:20;15.70;99.90
21787;DHT22;11055;50.870;4.316;2023-10-19T03:14:49;15.80;99.90
21787;DHT22;11055;50.870;4.316;2023-10-19T03:17:16;15.80;99.90
21787;DHT22;11055;50.870;4.316;2023-10-19T03:19:41;15.80;99.90
21787;DHT22;11055;50.870;4.316;2023-10-19T03:22:07;15.80;99.90
21787;DHT22;11055;50.870;4.316;2023-10-19T03:24:34;15.80;99.90
21787;DHT22;11055;50.870;4.316;2023-10-19T03:27:13;15.80;99.90
21787;DHT22;11055;50.870;4.316;2023-10-19T03:29:47;15.80;99.90
21787;DHT22;11055;50.870;4.316;2023-10-19T03:32:21;15.70;99.90
21787;DHT22;11055;50.870;4.316;2023-10-19T03:34:54;15.60;99.90
21787;DHT22;11055;50.870;4.316;2023-10-19T03:37:26;15.60;99.90
21787;DHT22;11055;50.870;4.316;2023-10-19T03:39:53;15.60;99.90
21787;DHT22;11055;50.870;4.316;2023-10-19T03:42:21;15.60;99.90
21787;DHT22;11055;50.870;4.316;2023-10-19T03:44:50;15.70;99.90
21787;DHT22;11055;50.870;4.316;2023-10-19T03:47:19;15.80;99.90
21787;DHT22;11055;50.870;4.316;2023-10-19T03:49:53;15.80;99.90
21787;DHT22;11055;50.870;4.316;2023-10-19T03:52:19;15.80;99.90
21787;DHT22;11055;50.870;4.316;2023-10-19T03:54:44;15.80;99.90
21787;DHT22;11055;50.870;4.316;2023-10-19T03:57:14;15.80;99.90
21787;DHT22;11055;50.870;4.316;2023-10-19T03:59:50;15.80;99.90
21787;DHT22;11055;50.870;4.316;2023-10-19T04:02:19;15.80;99.90
21787;DHT22;11055;50.870;4.316;2023-10-19T04:04:54;15.80;99.90
21787;DHT22;11055;50.870;4.316;2023-10-19T04:07:21;15.90;99.90
21787;DHT22;11055;50.870;4.316;2023-10-19T04:09:56;15.90;99.90
21787;DHT22;11055;50.870;4.316;2023-10-19T04:12:38;15.90;99.90
21787;DHT22;11055;50.870;4.316;2023-10-19T04:15:08;15.80;99.90
21787;DHT22;11055;50.870;4.316;2023-10-19T04:17:44;15.80;99.90
21787;DHT22;11055;50.870;4.316;2023-10-19T04:20:11;15.80;99.90
21787;DHT22;11055;50.870;4.316;2023-10-19T04:22:54;15.80;99.90
21787;DHT22;11055;50.870;4.316;2023-10-19T04:25:19;15.90;99.90
21787;DHT22;11055;50.870;4.316;2023-10-19T04:27:47;15.90;99.90
21787;DHT22;11055;50.870;4.316;2023-10-19T04:30:13;15.90;99.90
21787;DHT22;11055;50.870;4.316;2023-10-19T04:32:51;15.90;99.90
21787;DHT22;11055;50.870;4.316;2023-10-19T04:35:17;15.90;99.90
21787;DHT22;11055;50.870;4.316;2023-10-19T04:37:52;15.90;99.90
21787;DHT22;11055;50.870;4.316;2023-10-19T04:40:22;15.90;99.90
21787;DHT22;11055;50.870;4.316;2023-10-19T04:42:52;16.00;99.90
21787;DHT22;11055;50.870;4.316;2023-10-19T04:45:18;15.90;99.90
21787;DHT22;11055;50.870;4.316;2023-10-19T04:47:44;15.90;99.90
21787;DHT22;11055;50.870;4.316;2023-10-19T04:50:10;15.90;99.90
21787;DHT22;11055;50.870;4.316;2023-10-19T04:52:37;15.90;99.90
21787;DHT22;11055;50.870;4.316;2023-10-19T04:55:03;15.90;99.90
21787;DHT22;11055;50.870;4.316;2023-10-19T04:57:28;16.00;99.90
21787;DHT22;11055;50.870;4.316;2023-10-19T04:59:55;16.00;99.90
21787;DHT22;11055;50.870;4.316;2023-10-19T05:02:21;15.90;99.90
21787;DHT22;11055;50.870;4.316;2023-10-19T05:04:46;15.80;99.90
21787;DHT22;11055;50.870;4.316;2023-10-19T05:07:12;15.80;99.90
21787;DHT22;11055;50.870;4.316;2023-10-19T05:09:42;15.70;99.90
21787;DHT22;11055;50.870;4.316;2023-10-19T05:12:08;15.70;99.90
21787;DHT22;11055;50.870;4.316;2023-10-19T05:15:02;15.70;99.90
21787;DHT22;11055;50.870;4.316;2023-10-19T05:17:28;15.80;99.90
21787;DHT22;11055;50.870;4.316;2023-10-19T05:19:56;15.90;99.90
21787;DHT22;11055;50.870;4.316;2023-10-19T05:22:40;15.90;99.90
21787;DHT22;11055;50.870;4.316;2023-10-19T05:25:32;15.90;99.90
21787;DHT22;11055;50.870;4.316;2023-10-19T05:28:05;15.90;99.90
21787;DHT22;11055;50.870;4.316;2023-10-19T05:30:31;15.80;99.90
21787;DHT22;11055;50.870;4.316;2023-10-19T05:32:57;15.90;99.90
21787;DHT22;11055;50.870;4.316;2023-10-19T05:35:25;15.90;99.90
21787;DHT22;11055;50.870;4.316;2023-10-19T05:37:52;15.90;99.90
21787;DHT22;11055;50.870;4.316;2023-10-19T05:40:18;16.00;99.90
21787;DHT22;11055;50.870;4.316;2023-10-19T05:42:44;16.00;99.90
21787;DHT22;11055;50.870;4.316;2023-10-19T05:45:12;16.00;99.90
21787;DHT22;11055;50.870;4.316;2023-10-19T05:47:42;16.00;99.90
21787;DHT22;11055;50.870;4.316;2023-10-19T05:50:09;15.90;99.90
21787;DHT22;11055;50.870;4.316;2023-10-19T05:52:43;16.00;99.90
21787;DHT22;11055;50.870;4.316;2023-10-19T05:55:11;16.10;99.90
21787;DHT22;11055;50.870;4.316;2023-10-19T05:57:38;16.20;99.90
21787;DHT22;11055;50.870;4.316;2023-10-19T06:00:10;16.20;99.90
21787;DHT22;11055;50.870;4.316;2023-10-19T06:02:40;16.20;99.90
21787;DHT22;11055;50.870;4.316;2023-10-19T06:05:06;16.20;99.90
21787;DHT22;11055;50.870;4.316;2023-10-19T06:07:32;16.20;99.90
21787;DHT22;11055;50.870;4.316;2023-10-19T06:09:58;16.10;99.90
21787;DHT22;11055;50.870;4.316;2023-10-19T06:12:26;16.00;99.90
21787;DHT22;11055;50.870;4.316;2023-10-19T06:14:51;16.10;99.90
21787;DHT22;11055;50.870;4.316;2023-10-19T06:17:17;16.10;99.90
21787;DHT22;11055;50.870;4.316;2023-10-19T06:19:44;16.10;99.90
21787;DHT22;11055;50.870;4.316;2023-10-19T06:22:11;16.10;99.90
21787;DHT22;11055;50.870;4.316;2023-10-19T06:24:37;16.20;99.90
21787;DHT22;11055;50.870;4.316;2023-10-19T06:27:03;16.20;99.90
21787;DHT22;11055;50.870;4.316;2023-10-19T06:29:29;16.10;99.90
21787;DHT22;11055;50.870;4.316;2023-10-19T06:31:55;16.00;99.90
21787;DHT22;11055;50.870;4.316;2023-10-19T06:34:21;16.00;99.90
21787;DHT22;11055;50.870;4.316;2023-10-19T06:36:46;16.10;99.90
21787;DHT22;11055;50.870;4.316;2023-10-19T06:39:13;16.10;99.90
21787;DHT22;11055;50.870;4.316;2023-10-19T06:41:39;16.10;99.90
21787;DHT22;11055;50.870;4.316;2023-10-19T06:44:05;16.10;99.90
21787;DHT22;11055;50.870;4.316;2023-10-19T06:46:31;16.20;99.90
21787;DHT22;11055;50.870;4.316;2023-10-19T06:48:57;16.20;99.90
21787;DHT22;11055;50.870;4.316;2023-10-19T06:51:26;16.10;99.90
21787;DHT22;11055;50.870;4.316;2023-10-19T06:53:52;16.10;99.90
21787;DHT22;11055;50.870;4.316;2023-10-19T06:56:18;16.10;99.90
21787;DHT22;11055;50.870;4.316;2023-10-19T06:58:44;16.00;99.90
21787;DHT22;11055;50.870;4.316;2023-10-19T07:01:10;16.10;99.90
21787;DHT22;11055;50.870;4.316;2023-10-19T07:03:36;16.10;99.90
21787;DHT22;11055;50.870;4.316;2023-10-19T07:06:02;16.20;99.90
21787;DHT22;11055;50.870;4.316;2023-10-19T07:08:29;16.30;99.90
21787;DHT22;11055;50.870;4.316;2023-10-19T07:10:56;16.20;99.90
21787;DHT22;11055;50.870;4.316;2023-10-19T07:13:21;16.20;99.90
21787;DHT22;11055;50.870;4.316;2023-10-19T07:15:48;16.20;99.90
21787;DHT22;11055;50.870;4.316;2023-10-19T07:18:17;16.10;99.90
21787;DHT22;11055;50.870;4.316;2023-10-19T07:20:43;16.10;99.90
21787;DHT22;11055;50.870;4.316;2023-10-19T07:23:09;16.10;99.90
21787;DHT22;11055;50.870;4.316;2023-10-19T07:25:48;16.10;99.90
21787;DHT22;11055;50.870;4.316;2023-10-19T07:28:19;16.10;99.90
21787;DHT22;11055;50.870;4.316;2023-10-19T07:30:45;16.10;99.90
21787;DHT22;11055;50.870;4.316;2023-10-19T07:33:16;16.10;99.90
21787;DHT22;11055;50.870;4.316;2023-10-19T07:35:43;16.10;99.90
21787;DHT22;11055;50.870;4.316;2023-10-19T07:38:12;16.10;99.90
21787;DHT22;11055;50.870;4.316;2023-10-19T07:40:38;16.00;99.90
21787;DHT22;11055;50.870;4.316;2023-10-19T07:43:04;16.00;99.90
21787;DHT22;11055;50.870;4.316;2023-10-19T07:45:30;16.00;99.90
21787;DHT22;11055;50.870;4.316;2023-10-19T07:48:00;16.10;99.90
21787;DHT22;11055;50.870;4.316;2023-10-19T07:50:35;16.20;99.90
21787;DHT22;11055;50.870;4.316;2023-10-19T07:53:02;16.30;99.90
21787;DHT22;11055;50.870;4.316;2023-10-19T07:55:28;16.40;99.90
21787;DHT22;11055;50.870;4.316;2023-10-19T07:57:54;16.40;99.90
21787;DHT22;11055;50.870;4.316;2023-10-19T08:00:21;16.40;99.90
21787;DHT22;11055;50.870;4.316;2023-10-19T08:02:47;16.50;99.90
21787;DHT22;11055;50.870;4.316;2023-10-19T08:05:14;16.40;99.90
21787;DHT22;11055;50.870;4.316;2023-10-19T08:07:40;16.50;99.90
21787;DHT22;11055;50.870;4.316;2023-10-19T08:10:09;16.60;99.90
21787;DHT22;11055;50.870;4.316;2023-10-19T08:12:39;16.60;99.90
21787;DHT22;11055;50.870;4.316;2023-10-19T08:15:09;16.60;99.90
21787;DHT22;11055;50.870;4.316;2023-10-19T08:17:40;16.50;99.90
21787;DHT22;11055;50.870;4.316;2023-10-19T08:20:07;16.40;99.90
21787;DHT22;11055;50.870;4.316;2023-10-19T08:22:44;16.40;99.90
21787;DHT22;11055;50.870;4.316;2023-10-19T08:25:13;16.40;99.90
21787;DHT22;11055;50.870;4.316;2023-10-19T08:27:46;16.30;99.90
21787;DHT22;11055;50.870;4.316;2023-10-19T08:30:20;16.30;99.90
21787;DHT22;11055;50.870;4.316;2023-10-19T08:32:51;16.30;99.90
21787;DHT22;11055;50.870;4.316;2023-10-19T08:35:21;16.30;99.90
21787;DHT22;11055;50.870;4.316;2023-10-19T08:37:50;16.50;99.90
21787;DHT22;11055;50.870;4.316;2023-10-19T08:40:16;16.60;99.90
21787;DHT22;11055;50.870;4.316;2023-10-19T08:42:44;16.60;99.90
21787;DHT22;11055;50.870;4.316;2023-10-19T08:45:17;16.60;99.90
21787;DHT22;11055;50.870;4.316;2023-10-19T08:47:54;16.70;99.90
21787;DHT22;11055;50.870;4.316;2023-10-19T08:50:41;16.70;99.90
21787;DHT22;11055;50.870;4.316;2023-10-19T08:53:08;16.70;99.90
21787;DHT22;11055;50.870;4.316;2023-10-19T08:55:34;16.70;99.90
21787;DHT22;11055;50.870;4.316;2023-10-19T08:58:00;16.80;99.90
21787;DHT22;11055;50.870;4.316;2023-10-19T09:00:27;16.90;99.90
21787;DHT22;11055;50.870;4.316;2023-10-19T09:02:53;16.90;99.90
21787;DHT22;11055;50.870;4.316;2023-10-19T09:05:20;16.90;99.90
21787;DHT22;11055;50.870;4.316;2023-10-19T09:07:48;16.90;99.90
21787;DHT22;11055;50.870;4.316;2023-10-19T09:10:29;16.90;99.90
21787;DHT22;11055;50.870;4.316;2023-10-19T09:13:07;16.90;99.90
21787;DHT22;11055;50.870;4.316;2023-10-19T09:15:39;16.80;99.90
21787;DHT22;11055;50.870;4.316;2023-10-19T09:18:22;16.80;99.90
21787;DHT22;11055;50.870;4.316;2023-10-19T09:20:52;16.80;99.90
21787;DHT22;11055;50.870;4.316;2023-10-19T09:23:25;16.80;99.90
21787;DHT22;11055;50.870;4.316;2023-10-19T09:25:57;16.80;99.90
21787;DHT22;11055;50.870;4.316;2023-10-19T09:28:23;16.90;99.90
21787;DHT22;11055;50.870;4.316;2023-10-19T09:30:50;17.00;99.90
21787;DHT22;11055;50.870;4.316;2023-10-19T09:33:17;17.20;99.90
21787;DHT22;11055;50.870;4.316;2023-10-19T09:35:50;17.30;99.90
21787;DHT22;11055;50.870;4.316;2023-10-19T09:38:20;17.40;99.90
21787;DHT22;11055;50.870;4.316;2023-10-19T09:40:51;17.30;99.90
21787;DHT22;11055;50.870;4.316;2023-10-19T09:45:51;17.30;99.90
21787;DHT22;11055;50.870;4.316;2023-10-19T09:48:19;17.30;99.90
21787;DHT22;11055;50.870;4.316;2023-10-19T09:50:53;17.30;99.90
21787;DHT22;11055;50.870;4.316;2023-10-19T09:53:28;17.40;99.90
21787;DHT22;11055;50.870;4.316;2023-10-19T09:55:58;17.40;99.90
21787;DHT22;11055;50.870;4.316;2023-10-19T09:58:28;17.40;99.90
21787;DHT22;11055;50.870;4.316;2023-10-19T10:00:57;17.40;99.90
21787;DHT22;11055;50.870;4.316;2023-10-19T10:03:45;17.50;99.90
21787;DHT22;11055;50.870;4.316;2023-10-19T10:09:20;17.80;99.90
21787;DHT22;11055;50.870;4.316;2023-10-19T10:11:51;18.00;99.90
21787;DHT22;11055;50.870;4.316;2023-10-19T10:14:25;18.10;99.90
21787;DHT22;11055;50.870;4.316;2023-10-19T10:17:03;18.20;99.90
21787;DHT22;11055;50.870;4.316;2023-10-19T10:19:30;18.20;99.90
21787;DHT22;11055;50.870;4.316;2023-10-19T10:22:09;18.10;99.90
21787;DHT22;11055;50.870;4.316;2023-10-19T10:24:43;18.20;99.90
21787;DHT22;11055;50.870;4.316;2023-10-19T10:27:09;18.10;99.90
21787;DHT22;11055;50.870;4.316;2023-10-19T10:29:54;18.20;99.90
21787;DHT22;11055;50.870;4.316;2023-10-19T10:35:04;18.00;99.90
21787;DHT22;11055;50.870;4.316;2023-10-19T10:37:37;18.10;99.90
21787;DHT22;11055;50.870;4.316;2023-10-19T10:40:03;18.10;99.90
21787;DHT22;11055;50.870;4.316;2023-10-19T10:42:31;18.20;99.90
21787;DHT22;11055;50.870;4.316;2023-10-19T10:44:57;18.30;99.90
21787;DHT22;11055;50.870;4.316;2023-10-19T10:47:23;18.40;99.90
21787;DHT22;11055;50.870;4.316;2023-10-19T10:49:59;18.60;99.90
21787;DHT22;11055;50.870;4.316;2023-10-19T10:54:57;18.50;99.90
21787;DHT22;11055;50.870;4.316;2023-10-19T10:57:23;18.40;99.90
21787;DHT22;11055;50.870;4.316;2023-10-19T11:00:09;18.40;99.90
21787;DHT22;11055;50.870;4.316;2023-10-19T11:02:38;18.20;99.90
21787;DHT22;11055;50.870;4.316;2023-10-19T11:05:08;18.10;99.90
21787;DHT22;11055;50.870;4.316;2023-10-19T11:07:38;18.10;99.90
21787;DHT22;11055;50.870;4.316;2023-10-19T11:10:04;18.00;99.90
21787;DHT22;11055;50.870;4.316;2023-10-19T11:12:31;18.00;99.90
21787;DHT22;11055;50.870;4.316;2023-10-19T11:15:00;18.10;99.90
21787;DHT22;11055;50.870;4.316;2023-10-19T11:17:28;18.10;99.90
21787;DHT22;11055;50.870;4.316;2023-10-19T11:19:58;18.10;99.90
21787;DHT22;11055;50.870;4.316;2023-10-19T11:22:25;18.20;99.90
21787;DHT22;11055;50.870;4.316;2023-10-19T11:24:52;18.20;99.90
21787;DHT22;11055;50.870;4.316;2023-10-19T11:27:28;18.20;99.90
21787;DHT22;11055;50.870;4.316;2023-10-19T11:29:58;18.30;99.90
21787;DHT22;11055;50.870;4.316;2023-10-19T11:32:24;18.30;99.90
21787;DHT22;11055;50.870;4.316;2023-10-19T11:35:00;18.20;99.90
21787;DHT22;11055;50.870;4.316;2023-10-19T11:37:26;18.20;99.90
21787;DHT22;11055;50.870;4.316;2023-10-19T11:39:52;18.20;99.90
21787;DHT22;11055;50.870;4.316;2023-10-19T11:42:18;18.00;99.90
21787;DHT22;11055;50.870;4.316;2023-10-19T11:44:44;18.00;99.90
21787;DHT22;11055;50.870;4.316;2023-10-19T11:47:10;18.10;99.90
21787;DHT22;11055;50.870;4.316;2023-10-19T11:49:36;18.00;99.90
21787;DHT22;11055;50.870;4.316;2023-10-19T11:52:06;18.00;99.90
21787;DHT22;11055;50.870;4.316;2023-10-19T11:54:35;18.10;99.90
21787;DHT22;11055;50.870;4.316;2023-10-19T11:57:00;18.20;99.90
21787;DHT22;11055;50.870;4.316;2023-10-19T11:59:27;18.20;99.90
21787;DHT22;11055;50.870;4.316;2023-10-19T12:01:53;18.10;99.90
21787;DHT22;11055;50.870;4.316;2023-10-19T12:04:20;18.00;99.90
21787;DHT22;11055;50.870;4.316;2023-10-19T12:06:45;18.00;99.90
21787;DHT22;11055;50.870;4.316;2023-10-19T12:09:14;18.00;99.90
21787;DHT22;11055;50.870;4.316;2023-10-19T12:11:43;18.00;99.90
21787;DHT22;11055;50.870;4.316;2023-10-19T12:14:09;18.00;99.90
21787;DHT22;11055;50.870;4.316;2023-10-19T12:16:37;18.00;99.90
21787;DHT22;11055;50.870;4.316;2023-10-19T12:19:05;17.90;99.90
21787;DHT22;11055;50.870;4.316;2023-10-19T12:21:30;17.90;99.90
21787;DHT22;11055;50.870;4.316;2023-10-19T12:23:59;17.90;99.90
21787;DHT22;11055;50.870;4.316;2023-10-19T12:26:26;17.90;99.90
21787;DHT22;11055;50.870;4.316;2023-10-19T12:28:52;17.90;99.90
21787;DHT22;11055;50.870;4.316;2023-10-19T12:31:18;17.90;99.90
21787;DHT22;11055;50.870;4.316;2023-10-19T12:33:44;17.90;99.90
21787;DHT22;11055;50.870;4.316;2023-10-19T12:36:10;18.00;99.90
21787;DHT22;11055;50.870;4.316;2023-10-19T12:38:55;18.10;99.90
21787;DHT22;11055;50.870;4.316;2023-10-19T12:41:21;18.20;99.90
21787;DHT22;11055;50.870;4.316;2023-10-19T12:43:48;18.30;99.90
21787;DHT22;11055;50.870;4.316;2023-10-19T12:46:14;18.80;99.90
21787;DHT22;11055;50.870;4.316;2023-10-19T12:48:41;20.30;99.90
21787;DHT22;11055;50.870;4.316;2023-10-19T12:51:07;21.50;99.90
21787;DHT22;11055;50.870;4.316;2023-10-19T12:53:34;23.00;99.90
21787;DHT22;11055;50.870;4.316;2023-10-19T12:56:00;25.50;99.90
21787;DHT22;11055;50.870;4.316;2023-10-19T12:58:26;29.20;99.90
21787;DHT22;11055;50.870;4.316;2023-10-19T13:00:53;28.70;99.90
21787;DHT22;11055;50.870;4.316;2023-10-19T13:03:20;29.80;99.90
21787;DHT22;11055;50.870;4.316;2023-10-19T13:05:47;32.40;99.50
21787;DHT22;11055;50.870;4.316;2023-10-19T13:08:15;33.80;93.70
21787;DHT22;11055;50.870;4.316;2023-10-19T13:10:46;33.40;92.80
21787;DHT22;11055;50.870;4.316;2023-10-19T13:13:13;32.80;92.80
21787;DHT22;11055;50.870;4.316;2023-10-19T13:15:42;35.00;87.40
21787;DHT22;11055;50.870;4.316;2023-10-19T13:18:11;35.60;82.80
21787;DHT22;11055;50.870;4.316;2023-10-19T13:20:48;36.70;75.80
21787;DHT22;11055;50.870;4.316;2023-10-19T13:23:14;35.90;74.00
21787;DHT22;11055;50.870;4.316;2023-10-19T13:25:47;36.30;73.60
21787;DHT22;11055;50.870;4.316;2023-10-19T13:28:20;38.00;67.70
21787;DHT22;11055;50.870;4.316;2023-10-19T13:30:48;36.00;70.70
21787;DHT22;11055;50.870;4.316;2023-10-19T13:33:14;35.30;69.70
21787;DHT22;11055;50.870;4.316;2023-10-19T13:35:41;34.30;75.00
21787;DHT22;11055;50.870;4.316;2023-10-19T13:38:09;32.90;77.40
21787;DHT22;11055;50.870;4.316;2023-10-19T13:40:38;31.80;79.70
21787;DHT22;11055;50.870;4.316;2023-10-19T13:43:05;31.60;81.90
21787;DHT22;11055;50.870;4.316;2023-10-19T13:45:35;31.60;83.50
21787;DHT22;11055;50.870;4.316;2023-10-19T13:48:05;30.90;85.50
21787;DHT22;11055;50.870;4.316;2023-10-19T13:50:31;29.30;90.80
21787;DHT22;11055;50.870;4.316;2023-10-19T13:52:58;28.30;93.50
21787;DHT22;11055;50.870;4.316;2023-10-19T13:55:28;27.70;95.60
21787;DHT22;11055;50.870;4.316;2023-10-19T13:57:54;26.70;98.50
21787;DHT22;11055;50.870;4.316;2023-10-19T14:00:21;25.80;99.90
21787;DHT22;11055;50.870;4.316;2023-10-19T14:02:58;24.60;99.90
21787;DHT22;11055;50.870;4.316;2023-10-19T14:05:26;23.50;99.90
21787;DHT22;11055;50.870;4.316;2023-10-19T14:07:52;23.00;99.90
21787;DHT22;11055;50.870;4.316;2023-10-19T14:10:18;22.70;99.90
21787;DHT22;11055;50.870;4.316;2023-10-19T14:12:48;22.40;99.90
21787;DHT22;11055;50.870;4.316;2023-10-19T14:15:18;22.20;99.90
21787;DHT22;11055;50.870;4.316;2023-10-19T14:17:46;22.00;99.90
21787;DHT22;11055;50.870;4.316;2023-10-19T14:20:13;21.80;99.90
21787;DHT22;11055;50.870;4.316;2023-10-19T14:22:45;21.60;99.90
21787;DHT22;11055;50.870;4.316;2023-10-19T14:25:12;21.30;99.90
21787;DHT22;11055;50.870;4.316;2023-10-19T14:27:40;21.00;99.90
21787;DHT22;11055;50.870;4.316;2023-10-19T14:30:08;21.00;99.90
21787;DHT22;11055;50.870;4.316;2023-10-19T14:32:37;20.90;99.90
21787;DHT22;11055;50.870;4.316;2023-10-19T14:35:04;20.80;99.90
21787;DHT22;11055;50.870;4.316;2023-10-19T14:37:31;20.70;99.90
21787;DHT22;11055;50.870;4.316;2023-10-19T14:39:57;20.70;99.90
21787;DHT22;11055;50.870;4.316;2023-10-19T14:42:24;20.50;99.90
21787;DHT22;11055;50.870;4.316;2023-10-19T14:44:50;20.50;99.90
21787;DHT22;11055;50.870;4.316;2023-10-19T14:47:16;20.30;99.90
21787;DHT22;11055;50.870;4.316;2023-10-19T14:49:41;20.20;99.90
21787;DHT22;11055;50.870;4.316;2023-10-19T14:52:07;20.10;99.90
21787;DHT22;11055;50.870;4.316;2023-10-19T14:54:33;20.00;99.90
21787;DHT22;11055;50.870;4.316;2023-10-19T14:56:58;19.80;99.90
21787;DHT22;11055;50.870;4.316;2023-10-19T14:59:24;19.70;99.90
21787;DHT22;11055;50.870;4.316;2023-10-19T15:01:50;19.70;99.90
21787;DHT22;11055;50.870;4.316;2023-10-19T15:04:17;19.70;99.90
21787;DHT22;11055;50.870;4.316;2023-10-19T15:06:43;19.70;99.90
21787;DHT22;11055;50.870;4.316;2023-10-19T15:09:09;19.60;99.90
21787;DHT22;11055;50.870;4.316;2023-10-19T15:11:40;19.60;99.90
21787;DHT22;11055;50.870;4.316;2023-10-19T15:14:06;19.50;99.90
21787;DHT22;11055;50.870;4.316;2023-10-19T15:16:31;19.60;99.90
21787;DHT22;11055;50.870;4.316;2023-10-19T15:18:57;19.70;99.90
21787;DHT22;11055;50.870;4.316;2023-10-19T15:21:22;19.60;99.90
21787;DHT22;11055;50.870;4.316;2023-10-19T15:23:49;19.60;99.90
21787;DHT22;11055;50.870;4.316;2023-10-19T15:26:18;19.50;99.90
21787;DHT22;11055;50.870;4.316;2023-10-19T15:28:45;19.40;99.90
21787;DHT22;11055;50.870;4.316;2023-10-19T15:31:10;19.40;99.90
21787;DHT22;11055;50.870;4.316;2023-10-19T15:33:36;19.30;99.90
21787;DHT22;11055;50.870;4.316;2023-10-19T15:36:02;19.30;99.90
21787;DHT22;11055;50.870;4.316;2023-10-19T15:38:27;19.30;99.90
21787;DHT22;11055;50.870;4.316;2023-10-19T15:40:53;19.20;99.90
21787;DHT22;11055;50.870;4.316;2023-10-19T15:43:20;19.20;99.90
21787;DHT22;11055;50.870;4.316;2023-10-19T15:45:46;19.10;99.90
21787;DHT22;11055;50.870;4.316;2023-10-19T15:48:15;19.10;99.90
21787;DHT22;11055;50.870;4.316;2023-10-19T15:50:41;19.10;99.90
21787;DHT22;11055;50.870;4.316;2023-10-19T15:53:07;19.20;99.90